Earleton, Florida
Current Conditions -  °F | °C
As of 2:50 PM on Monday 24 Nov 2014 (Local Time) from KOCF Reporting Station
Broken Clouds Broken Clouds  
Wind Chill: 84°   Ceiling: 3500
Heat Index: 87°   Visibility: 10mi
Dew Point: 68°   Wind: 18mph
Humidity: 58%   Direction: 220°SW
Pressure: 29.9"   Gusts: 23mph
Location:  29.43°N, 82.21°W
Report Text: KOCF 241950Z 22016G20KT 10SM BKN035 29/20 A2990
Loading
Personal Weather Stations






























Interactive Weather Map New forecast layout! Learn more

10-Day Weather Forecast

Advertisements
Track Severe Weather on mobile